Time;durP1;ratioP1;P1;durP2;ratioP2;P2;SDS_P1;SDS_P2;PMS_P1;PMS_P2;Temp;Humidity;BMP_temperature;BMP_pressure;BME280_temperature;BME280_humidity;BME280_pressure;Samples;Min_cycle;Max_cycle;Signal;HPM_P1;HPM_P2
2022/05/27 00:00:21;;;;;;;5.47;1.70;;;16.60;99.90;;;;;;4834568;28;10001395;-74
2022/05/27 00:02:50;;;;;;;6.05;1.70;;;16.50;99.90;;;;;;4660319;28;9999932;-73
2022/05/27 00:05:16;;;;;;;6.43;1.60;;;16.50;99.90;;;;;;5024458;28;20026;-73
2022/05/27 00:07:42;;;;;;;6.25;1.83;;;16.50;99.90;;;;;;5016791;28;20030;-73
2022/05/27 00:10:10;;;;;;;5.07;1.80;;;16.40;99.90;;;;;;5017497;28;20531;-73
2022/05/27 00:12:35;;;;;;;5.18;1.63;;;16.40;99.90;;;;;;5003020;28;20478;-74
2022/05/27 00:15:01;;;;;;;8.15;1.80;;;16.40;99.90;;;;;;5021222;28;20037;-74
2022/05/27 00:17:27;;;;;;;7.47;1.85;;;16.30;99.90;;;;;;5011176;28;20034;-74
2022/05/27 00:19:53;;;;;;;8.93;2.00;;;16.30;99.90;;;;;;4999996;28;20048;-73
2022/05/27 00:22:18;;;;;;;5.57;1.70;;;16.30;99.90;;;;;;5012179;28;20029;-73
2022/05/27 00:24:44;;;;;;;6.95;1.70;;;16.30;99.90;;;;;;5012082;28;20026;-73
2022/05/27 00:27:10;;;;;;;4.03;1.60;;;16.30;99.90;;;;;;5012922;28;20116;-74
2022/05/27 00:29:36;;;;;;;6.05;1.88;;;16.30;99.90;;;;;;5009069;28;20185;-73
2022/05/27 00:32:03;;;;;;;5.53;1.98;;;16.30;99.90;;;;;;5016320;28;20028;-73
2022/05/27 00:34:29;;;;;;;6.03;2.17;;;16.30;99.90;;;;;;5005969;28;20060;-74
2022/05/27 00:36:55;;;;;;;5.22;1.85;;;16.30;99.90;;;;;;5011228;28;20442;-73
2022/05/27 00:39:20;;;;;;;10.43;2.20;;;16.30;99.90;;;;;;5011662;28;20085;-73
2022/05/27 00:41:46;;;;;;;9.85;2.38;;;16.30;99.90;;;;;;5010984;28;20037;-73
2022/05/27 00:44:11;;;;;;;7.60;2.03;;;16.30;99.90;;;;;;5005415;28;20477;-73
2022/05/27 00:46:41;;;;;;;4.90;1.65;;;16.30;99.90;;;;;;5007457;28;20032;-73
2022/05/27 00:49:19;;;;;;;4.00;1.50;;;16.20;99.90;;;;;;5013882;28;20030;-73
2022/05/27 00:51:49;;;;;;;7.30;1.83;;;16.30;99.90;;;;;;5005997;28;20039;-73
2022/05/27 00:54:19;;;;;;;6.00;1.75;;;16.20;99.90;;;;;;5011443;28;20163;-73
2022/05/27 00:56:50;;;;;;;6.25;2.20;;;16.20;99.90;;;;;;5020230;28;20025;-73
2022/05/27 00:59:33;;;;;;;7.72;2.17;;;16.30;99.90;;;;;;5023391;28;20025;-73
2022/05/27 01:01:59;;;;;;;5.57;1.88;;;16.20;99.90;;;;;;5020608;28;20044;-73
2022/05/27 01:04:27;;;;;;;9.48;2.13;;;16.20;99.90;;;;;;5008397;28;20034;-73
2022/05/27 01:06:53;;;;;;;5.22;1.77;;;16.20;99.90;;;;;;5025725;28;20091;-73
2022/05/27 01:09:19;;;;;;;5.03;1.80;;;16.20;99.90;;;;;;5008151;28;20030;-73
2022/05/27 01:12:15;;;;;;;4.43;1.83;;;16.20;99.90;;;;;;5004285;28;20108;-73
2022/05/27 01:15:00;;;;;;;6.50;1.75;;;16.20;99.90;;;;;;4998489;28;20030;-74
2022/05/27 01:17:28;;;;;;;5.57;2.20;;;16.10;99.90;;;;;;4991059;28;20022;-74
2022/05/27 01:20:18;;;;;;;8.13;1.90;;;16.10;99.90;;;;;;4993039;28;20049;-73
2022/05/27 01:23:17;;;;;;;9.63;2.50;;;16.20;99.90;;;;;;5003570;28;20488;-74
2022/05/27 01:25:57;;;;;;;6.15;2.03;;;16.10;99.90;;;;;;4992266;28;20033;-74
2022/05/27 01:28:42;;;;;;;6.05;2.00;;;16.20;99.90;;;;;;5004856;28;20486;-74
2022/05/27 01:31:33;;;;;;;9.73;2.03;;;16.10;99.90;;;;;;5004029;28;20042;-74
2022/05/27 01:34:18;;;;;;;10.57;2.20;;;16.10;99.90;;;;;;4984741;28;20029;-74
2022/05/27 01:37:12;;;;;;;3.45;1.63;;;16.10;99.90;;;;;;4989372;28;20513;-73
2022/05/27 01:39:57;;;;;;;4.32;2.00;;;16.10;99.90;;;;;;4953033;28;20093;-73
2022/05/27 01:42:45;;;;;;;6.45;1.73;;;16.10;99.90;;;;;;4999696;28;20581;-73
2022/05/27 01:45:58;;;;;;;4.18;1.90;;;16.10;99.90;;;;;;4978822;28;20054;-74
2022/05/27 01:48:34;;;;;;;4.47;1.55;;;16.00;99.90;;;;;;4950646;28;20026;-74
2022/05/27 01:51:17;;;;;;;4.18;1.80;;;16.00;99.90;;;;;;4984282;28;20034;-74
2022/05/27 01:53:46;;;;;;;;;;;16.00;99.90;;;;;;4996508;28;20089;-73
2022/05/27 01:56:26;;;;;;;7.50;2.00;;;16.00;99.90;;;;;;4996321;28;20373;-73
2022/05/27 01:58:59;;;;;;;4.25;1.80;;;16.00;99.90;;;;;;4991087;28;20132;-73
2022/05/27 02:01:32;;;;;;;6.93;1.65;;;16.00;99.90;;;;;;4989697;28;20066;-73
2022/05/27 02:04:09;;;;;;;4.20;1.70;;;16.00;99.90;;;;;;4986834;28;20467;-73
2022/05/27 02:06:39;;;;;;;4.15;1.60;;;16.00;99.90;;;;;;4985272;28;20026;-73
2022/05/27 02:09:16;;;;;;;4.38;1.80;;;16.00;99.90;;;;;;4986856;28;20033;-73
2022/05/27 02:11:45;;;;;;;6.18;1.70;;;16.00;99.90;;;;;;4993143;28;20437;-73
2022/05/27 02:14:19;;;;;;;6.30;1.45;;;16.00;99.90;;;;;;4994378;28;20032;-74
2022/05/27 02:16:51;;;;;;;4.18;1.48;;;16.00;99.90;;;;;;4995004;28;20368;-74
2022/05/27 02:19:49;;;;;;;5.72;1.77;;;16.00;99.90;;;;;;4996360;28;20100;-74
2022/05/27 02:22:20;;;;;;;4.18;1.60;;;16.00;99.90;;;;;;4995744;28;20022;-74
2022/05/27 02:24:51;;;;;;;3.90;1.75;;;15.90;99.90;;;;;;4996096;28;20117;-74
2022/05/27 02:27:22;;;;;;;3.60;1.83;;;15.90;99.90;;;;;;5001653;28;20037;-74
2022/05/27 02:29:52;;;;;;;7.97;1.90;;;15.90;99.90;;;;;;4992065;28;20033;-74
2022/05/27 02:32:28;;;;;;;3.30;1.50;;;15.90;99.90;;;;;;5007396;28;20029;-75
2022/05/27 02:35:08;;;;;;;3.10;1.67;;;15.90;99.90;;;;;;4990443;28;20026;-74
2022/05/27 02:37:44;;;;;;;5.45;1.80;;;15.90;99.90;;;;;;4989583;28;20133;-74
2022/05/27 02:40:15;;;;;;;3.72;1.95;;;15.80;99.90;;;;;;5000136;28;20066;-74
2022/05/27 02:43:14;;;;;;;4.80;1.83;;;15.80;99.90;;;;;;5002334;28;20027;-74
2022/05/27 02:46:17;;;;;;;2.45;1.77;;;15.80;99.90;;;;;;4992924;28;20026;-75
2022/05/27 02:48:55;;;;;;;4.07;1.87;;;15.70;99.90;;;;;;4985125;28;20109;-74
2022/05/27 02:51:35;;;;;;;4.15;1.98;;;15.70;99.90;;;;;;4983266;28;20038;-74
2022/05/27 02:54:44;;;;;;;3.63;2.13;;;15.70;99.90;;;;;;4993252;28;20387;-75
2022/05/27 02:57:12;;;;;;;5.45;2.35;;;15.70;99.90;;;;;;4978686;28;20038;-75
2022/05/27 02:59:40;;;;;;;4.85;2.25;;;15.70;99.90;;;;;;4999031;28;20390;-75
2022/05/27 03:02:13;;;;;;;5.35;2.50;;;15.70;99.90;;;;;;4993743;28;20073;-75
2022/05/27 03:04:48;;;;;;;5.15;2.53;;;15.70;99.90;;;;;;5002894;28;20323;-75
2022/05/27 03:07:41;;;;;;;7.43;3.10;;;15.70;99.90;;;;;;5003058;28;20026;-74
2022/05/27 03:10:21;;;;;;;5.07;2.55;;;15.60;99.90;;;;;;4980190;28;20260;-74
2022/05/27 03:13:11;;;;;;;5.88;2.25;;;15.60;99.90;;;;;;4992150;28;20248;-74
2022/05/27 03:16:13;;;;;;;4.28;2.78;;;15.60;99.90;;;;;;5016911;28;20029;-75
2022/05/27 03:18:59;;;;;;;6.70;3.13;;;15.60;99.90;;;;;;5007304;28;20034;-74
2022/05/27 03:21:32;;;;;;;10.05;3.30;;;15.60;99.90;;;;;;5018182;28;20140;-74
2022/05/27 03:24:19;;;;;;;4.37;3.93;;;15.60;99.90;;;;;;5016817;28;20052;-74
2022/05/27 03:26:56;;;;;;;7.28;3.47;;;15.50;99.90;;;;;;5002636;28;20474;-74
2022/05/27 03:29:50;;;;;;;3.60;3.03;;;15.50;99.90;;;;;;5011893;28;20042;-74
2022/05/27 03:32:50;;;;;;;3.55;3.10;;;15.50;99.90;;;;;;5017149;28;20022;-74
2022/05/27 03:35:46;;;;;;;7.22;3.67;;;15.40;99.90;;;;;;5004730;28;20049;-74
2022/05/27 03:38:39;;;;;;;5.13;3.50;;;15.40;99.90;;;;;;5013898;28;20022;-74
2022/05/27 03:41:30;;;;;;;5.28;3.10;;;15.30;99.90;;;;;;4997873;28;20032;-74
2022/05/27 03:43:56;;;;;;;5.85;3.00;;;15.30;99.90;;;;;;5005624;28;20025;-74
2022/05/27 03:46:30;;;;;;;6.28;3.35;;;15.30;99.90;;;;;;5009594;28;20199;-74
2022/05/27 03:48:56;;;;;;;4.78;3.10;;;15.30;99.90;;;;;;5019244;28;20030;-74
2022/05/27 03:51:26;;;;;;;6.18;3.40;;;15.30;99.90;;;;;;5010027;28;20030;-75
2022/05/27 03:54:04;;;;;;;6.50;3.10;;;15.30;99.90;;;;;;5016226;28;20042;-74
2022/05/27 03:56:38;;;;;;;6.18;3.13;;;15.20;99.90;;;;;;5010302;28;20033;-75
2022/05/27 03:59:05;;;;;;;5.97;3.30;;;15.20;99.90;;;;;;5005905;28;20041;-74
2022/05/27 04:01:33;;;;;;;7.70;3.10;;;15.20;99.90;;;;;;5005224;28;20425;-74
2022/05/27 04:04:01;;;;;;;3.85;2.83;;;15.20;99.90;;;;;;5013324;28;20036;-74
2022/05/27 04:06:28;;;;;;;5.38;3.10;;;15.20;99.90;;;;;;5008302;28;20528;-75
2022/05/27 04:08:54;;;;;;;5.00;3.10;;;15.20;99.90;;;;;;5007873;28;20076;-75
2022/05/27 04:11:21;;;;;;;9.23;2.90;;;15.20;99.90;;;;;;5014680;28;20048;-74
2022/05/27 04:13:47;;;;;;;6.53;2.58;;;15.20;99.90;;;;;;5020608;28;20040;-74
2022/05/27 04:16:13;;;;;;;2.97;2.33;;;15.20;99.90;;;;;;5007741;28;20393;-74
2022/05/27 04:18:39;;;;;;;6.28;2.63;;;15.20;99.90;;;;;;5005618;28;20026;-74
2022/05/27 04:21:05;;;;;;;4.60;2.55;;;15.30;99.90;;;;;;5023967;28;20048;-75
2022/05/27 04:23:30;;;;;;;4.28;2.38;;;15.30;99.90;;;;;;5011596;28;20040;-74
2022/05/27 04:25:56;;;;;;;2.67;2.10;;;15.30;99.90;;;;;;5015944;28;20039;-74
2022/05/27 04:28:22;;;;;;;3.25;2.40;;;15.30;99.90;;;;;;5005763;28;20556;-74
2022/05/27 04:30:47;;;;;;;5.78;2.50;;;15.30;99.90;;;;;;5001838;28;20026;-75
2022/05/27 04:33:13;;;;;;;4.20;2.83;;;15.30;99.90;;;;;;5002742;28;20153;-74
2022/05/27 04:35:40;;;;;;;5.28;2.50;;;15.30;99.90;;;;;;5014185;28;20052;-74
2022/05/27 04:38:06;;;;;;;6.70;2.50;;;15.20;99.90;;;;;;5023813;28;20104;-74
2022/05/27 04:40:32;;;;;;;3.70;2.22;;;15.20;99.90;;;;;;5019254;28;20072;-74
2022/05/27 04:42:58;;;;;;;4.03;2.28;;;15.20;99.90;;;;;;5004654;28;20045;-74
2022/05/27 04:45:25;;;;;;;2.60;2.05;;;15.20;99.90;;;;;;5014138;28;20033;-74
2022/05/27 04:47:50;;;;;;;3.75;2.20;;;15.20;99.90;;;;;;5015110;28;20370;-74
2022/05/27 04:50:18;;;;;;;4.40;2.13;;;15.20;99.90;;;;;;5013332;28;20130;-74
2022/05/27 04:52:44;;;;;;;3.05;2.17;;;15.20;99.90;;;;;;5006686;28;20044;-75
2022/05/27 04:55:13;;;;;;;5.38;2.33;;;15.20;99.90;;;;;;5005305;28;20033;-75
2022/05/27 04:57:46;;;;;;;4.18;2.13;;;15.20;99.90;;;;;;5020365;28;20039;-73
2022/05/27 05:00:22;;;;;;;5.88;2.40;;;15.30;99.90;;;;;;5003255;28;20042;-74
2022/05/27 05:02:48;;;;;;;2.97;2.05;;;15.30;99.90;;;;;;5019361;28;20030;-75
2022/05/27 05:05:18;;;;;;;4.75;2.22;;;15.30;99.90;;;;;;5005123;28;20026;-75
2022/05/27 05:07:47;;;;;;;2.95;2.10;;;15.30;99.90;;;;;;5008430;28;20029;-74
2022/05/27 05:10:16;;;;;;;2.35;2.00;;;15.30;99.90;;;;;;5006003;28;20109;-74
2022/05/27 05:12:43;;;;;;;4.72;1.85;;;15.30;99.90;;;;;;5005598;28;20052;-75
2022/05/27 05:15:10;;;;;;;3.53;1.80;;;15.30;99.90;;;;;;5006000;28;20062;-74
2022/05/27 05:17:36;;;;;;;2.63;1.60;;;15.40;99.90;;;;;;5006065;28;20026;-75
2022/05/27 05:20:04;;;;;;;2.80;1.50;;;15.30;99.90;;;;;;5005207;28;20124;-74
2022/05/27 05:22:31;;;;;;;1.60;1.50;;;15.40;99.90;;;;;;5025001;28;20057;-74
2022/05/27 05:24:57;;;;;;;2.45;1.52;;;15.30;99.90;;;;;;5010365;28;20394;-74
2022/05/27 05:27:24;;;;;;;3.00;1.60;;;15.30;99.90;;;;;;5004817;28;20022;-75
2022/05/27 05:29:52;;;;;;;3.08;1.50;;;15.30;99.90;;;;;;5002986;28;20033;-75
2022/05/27 05:32:17;;;;;;;1.63;1.27;;;15.30;99.90;;;;;;5013146;28;20033;-74
2022/05/27 05:34:43;;;;;;;1.70;1.60;;;15.30;99.90;;;;;;5010313;28;20033;-74
2022/05/27 05:37:09;;;;;;;3.63;1.35;;;15.30;99.90;;;;;;5002646;28;20037;-73
2022/05/27 05:39:36;;;;;;;2.67;1.33;;;15.30;99.90;;;;;;5016227;28;20096;-74
2022/05/27 05:42:05;;;;;;;3.22;1.58;;;15.30;99.90;;;;;;5001562;28;20044;-74
2022/05/27 05:44:31;;;;;;;1.40;1.30;;;15.30;99.90;;;;;;5005636;28;20063;-74
2022/05/27 05:46:57;;;;;;;5.35;1.70;;;15.30;99.90;;;;;;5002465;28;20022;-73
2022/05/27 05:49:23;;;;;;;3.30;1.20;;;15.20;99.90;;;;;;4994963;28;20041;-72
2022/05/27 05:51:49;;;;;;;1.85;1.23;;;15.10;99.90;;;;;;5011583;28;20088;-72
2022/05/27 05:54:16;;;;;;;6.10;1.20;;;14.90;99.90;;;;;;4662446;28;10000199;-72
2022/05/27 05:56:41;;;;;;;4.43;1.30;;;14.70;99.90;;;;;;5004627;28;20627;-72
2022/05/27 05:59:07;;;;;;;5.45;1.38;;;14.50;99.90;;;;;;4992894;28;20030;-72
2022/05/27 06:01:33;;;;;;;2.95;1.25;;;14.30;99.90;;;;;;5001281;28;20100;-72
2022/05/27 06:03:58;;;;;;;4.00;1.30;;;14.20;99.90;;;;;;5010813;28;20037;-72
2022/05/27 06:06:24;;;;;;;5.07;1.40;;;14.30;99.90;;;;;;5001291;28;20452;-72
2022/05/27 06:08:50;;;;;;;2.10;1.17;;;14.20;99.90;;;;;;4995630;28;20022;-72
2022/05/27 06:11:15;;;;;;;4.40;1.30;;;14.20;99.90;;;;;;4997968;28;20037;-72
2022/05/27 06:13:41;;;;;;;2.80;1.40;;;14.20;99.90;;;;;;5009256;28;20034;-72
2022/05/27 06:16:09;;;;;;;3.35;1.50;;;14.20;99.90;;;;;;4999947;28;20033;-72
2022/05/27 06:18:35;;;;;;;1.88;1.40;;;14.20;99.90;;;;;;5005820;28;20049;-72
2022/05/27 06:21:02;;;;;;;4.93;1.40;;;14.20;99.90;;;;;;5008313;28;20720;-71
2022/05/27 06:23:28;;;;;;;1.67;1.30;;;14.30;99.90;;;;;;5009452;28;20029;-72
2022/05/27 06:25:56;;;;;;;3.67;1.60;;;14.30;99.90;;;;;;5010629;28;20030;-72
2022/05/27 06:36:35;;;;;;;2.38;1.23;;;14.40;99.90;;;;;;5018828;28;20476;-72
2022/05/27 06:39:01;;;;;;;2.67;1.13;;;14.40;99.90;;;;;;5012758;28;20064;-72
2022/05/27 06:41:26;;;;;;;5.85;1.50;;;14.50;99.90;;;;;;5023350;28;20034;-72
2022/05/27 06:43:52;;;;;;;3.38;1.30;;;14.60;99.90;;;;;;5016074;28;20032;-72
2022/05/27 06:46:18;;;;;;;2.17;1.23;;;14.70;99.90;;;;;;5009341;28;20056;-72
2022/05/27 06:48:43;;;;;;;2.80;1.25;;;14.80;99.90;;;;;;5005825;28;20379;-72
2022/05/27 06:51:09;;;;;;;2.65;1.40;;;14.80;99.90;;;;;;5018974;28;20060;-72
2022/05/27 06:53:34;;;;;;;1.23;1.00;;;14.70;99.90;;;;;;5020991;28;20625;-72
2022/05/27 06:56:00;;;;;;;2.75;1.10;;;14.60;99.90;;;;;;5005273;28;20034;-72
2022/05/27 06:58:26;;;;;;;3.20;1.30;;;14.60;99.90;;;;;;5001184;28;20389;-72
2022/05/27 07:00:51;;;;;;;4.30;1.40;;;14.50;99.90;;;;;;5014130;28;20038;-73
2022/05/27 07:03:17;;;;;;;3.47;1.20;;;14.50;99.90;;;;;;5006998;28;20407;-72
2022/05/27 07:05:43;;;;;;;2.20;1.20;;;14.50;99.90;;;;;;5003421;28;20061;-72
2022/05/27 07:08:09;;;;;;;4.05;1.30;;;14.50;99.90;;;;;;5002822;28;20029;-71
2022/05/27 07:10:34;;;;;;;1.65;1.35;;;14.50;99.90;;;;;;5022778;28;20041;-72
2022/05/27 07:13:00;;;;;;;2.08;1.30;;;14.50;99.90;;;;;;5021289;28;20038;-72
2022/05/27 07:15:27;;;;;;;2.72;1.45;;;14.70;99.90;;;;;;5009698;28;20034;-72
2022/05/27 07:17:53;;;;;;;1.33;1.23;;;14.80;99.90;;;;;;5006851;28;20125;-72
2022/05/27 07:20:18;;;;;;;4.25;1.65;;;14.80;99.90;;;;;;5008261;28;20116;-72
2022/05/27 07:22:44;;;;;;;5.43;1.67;;;14.90;99.90;;;;;;5020056;28;20098;-72
2022/05/27 07:25:13;;;;;;;3.72;1.30;;;14.90;99.90;;;;;;5010029;28;20477;-72
2022/05/27 07:27:39;;;;;;;3.72;1.40;;;14.90;99.90;;;;;;5004807;28;20036;-72
2022/05/27 07:30:05;;;;;;;2.40;1.45;;;14.90;99.90;;;;;;5011987;28;20029;-72
2022/05/27 07:32:36;;;;;;;5.43;1.52;;;14.90;99.90;;;;;;5013356;28;20132;-72
2022/05/27 07:35:03;;;;;;;3.17;1.33;;;14.90;99.90;;;;;;5004891;28;20494;-72
2022/05/27 07:37:29;;;;;;;3.03;1.42;;;14.90;99.90;;;;;;5009339;28;20091;-73
2022/05/27 07:39:55;;;;;;;4.05;1.30;;;15.00;99.90;;;;;;5000716;28;20034;-72
2022/05/27 07:42:20;;;;;;;3.38;1.23;;;15.00;99.90;;;;;;5014674;28;20046;-72
2022/05/27 07:44:46;;;;;;;4.38;1.58;;;15.10;99.90;;;;;;5001407;28;20595;-73
2022/05/27 07:47:12;;;;;;;4.28;1.52;;;15.10;99.90;;;;;;4999625;28;20026;-73
2022/05/27 07:49:38;;;;;;;2.75;1.30;;;15.20;99.90;;;;;;5001838;28;20531;-73
2022/05/27 07:52:05;;;;;;;3.20;1.60;;;15.20;99.90;;;;;;5021077;28;20032;-73
2022/05/27 07:54:31;;;;;;;3.40;1.52;;;15.20;99.90;;;;;;5011559;28;20036;-72
2022/05/27 07:56:56;;;;;;;4.60;1.60;;;15.20;99.90;;;;;;5002586;28;20030;-73
2022/05/27 07:59:22;;;;;;;4.63;1.40;;;15.30;99.90;;;;;;4994444;28;20018;-73
2022/05/27 08:01:48;;;;;;;2.30;1.67;;;15.30;99.90;;;;;;5005846;28;20537;-73
2022/05/27 08:04:13;;;;;;;3.45;1.45;;;15.30;99.90;;;;;;5001974;28;20018;-73
2022/05/27 08:06:40;;;;;;;3.60;1.70;;;15.30;99.90;;;;;;5005389;28;20113;-72
2022/05/27 08:09:06;;;;;;;3.22;1.45;;;15.30;99.90;;;;;;5001390;28;20108;-73
2022/05/27 08:11:31;;;;;;;1.70;1.35;;;15.40;99.90;;;;;;5004483;28;20068;-73
2022/05/27 08:13:57;;;;;;;4.47;1.23;;;15.40;99.90;;;;;;4998755;28;21950;-73
2022/05/27 08:16:23;;;;;;;3.08;1.50;;;15.40;99.90;;;;;;5008517;28;20021;-72
2022/05/27 08:18:48;;;;;;;2.75;1.45;;;15.50;99.90;;;;;;5004767;28;20033;-73
2022/05/27 08:21:14;;;;;;;3.50;1.50;;;15.60;99.90;;;;;;5005353;28;20512;-73
2022/05/27 08:23:40;;;;;;;5.20;1.48;;;15.60;99.90;;;;;;5004768;28;20120;-72
2022/05/27 08:26:06;;;;;;;2.45;1.13;;;15.70;99.90;;;;;;5016872;28;20028;-72
2022/05/27 08:28:31;;;;;;;3.35;1.50;;;15.80;99.90;;;;;;5011723;28;20076;-72
2022/05/27 08:30:58;;;;;;;3.10;1.40;;;15.90;99.90;;;;;;5000114;28;20037;-72
2022/05/27 08:33:25;;;;;;;2.53;1.55;;;16.10;99.90;;;;;;5011362;28;20032;-73
2022/05/27 08:38:37;;;;;;;1.95;1.45;;;16.30;99.90;;;;;;5002203;28;20520;-73
2022/05/27 08:41:15;;;;;;;3.08;1.30;;;16.40;99.90;;;;;;5008858;28;20036;-73
2022/05/27 08:44:13;;;;;;;2.67;1.45;;;16.40;99.90;;;;;;5009187;28;20038;-72
2022/05/27 08:46:46;;;;;;;3.50;1.40;;;16.50;99.90;;;;;;5008680;28;20022;-72
2022/05/27 08:49:19;;;;;;;3.47;1.63;;;16.40;99.90;;;;;;5001511;28;20022;-72
2022/05/27 08:51:55;;;;;;;4.50;1.40;;;16.50;99.90;;;;;;4996138;28;20679;-72
2022/05/27 08:54:29;;;;;;;2.75;1.20;;;16.50;99.90;;;;;;4996328;28;20033;-72
2022/05/27 08:59:53;;;;;;;2.95;1.20;;;16.60;99.90;;;;;;4999379;28;20076;-72
2022/05/27 09:02:31;;;;;;;2.40;1.40;;;16.60;99.90;;;;;;5018961;28;20026;-71
2022/05/27 09:05:23;;;;;;;2.30;1.67;;;16.50;99.90;;;;;;5003559;28;20022;-72
2022/05/27 09:07:58;;;;;;;4.97;2.88;;;16.40;99.90;;;;;;5004015;28;20494;-72
2022/05/27 09:10:38;;;;;;;5.82;4.10;;;16.40;99.90;;;;;;5004263;28;20033;-72
2022/05/27 09:13:36;;;;;;;2.53;1.40;;;16.40;99.90;;;;;;5005533;28;20041;-72
2022/05/27 09:16:44;;;;;;;2.83;1.05;;;16.50;99.90;;;;;;4996279;28;20178;-72
2022/05/27 09:19:21;;;;;;;2.45;1.60;;;16.50;99.90;;;;;;5015852;28;20489;-72
2022/05/27 09:22:31;;;;;;;2.67;1.92;;;16.50;99.90;;;;;;5010635;28;20120;-71
2022/05/27 09:25:18;;;;;;;9.93;6.65;;;16.70;99.90;;;;;;4946128;28;20089;-73
2022/05/27 09:27:53;;;;;;;4.93;1.92;;;17.00;99.90;;;;;;4948248;28;20619;-72
2022/05/27 09:30:19;;;;;;;17.48;11.38;;;17.20;99.90;;;;;;4993130;28;20125;-72
2022/05/27 09:32:56;;;;;;;26.65;16.48;;;17.30;99.90;;;;;;4996063;28;20177;-72
2022/05/27 09:35:43;;;;;;;4.38;2.38;;;17.30;99.90;;;;;;5015685;28;20093;-72
2022/05/27 09:38:18;;;;;;;4.75;1.80;;;17.60;99.90;;;;;;4998585;28;20087;-72
2022/05/27 09:40:54;;;;;;;10.07;3.40;;;17.90;99.90;;;;;;5003888;28;20180;-71
2022/05/27 09:43:38;;;;;;;2.42;1.73;;;18.20;99.90;;;;;;5004943;28;20454;-72
2022/05/27 09:46:05;;;;;;;;;;;18.40;99.90;;;;;;5004644;28;20041;-72
2022/05/27 09:48:31;;;;;;;2.40;1.80;;;18.40;99.90;;;;;;5002754;28;19917;-72
2022/05/27 09:51:04;;;;;;;4.38;1.60;;;18.50;99.90;;;;;;5006918;28;20034;-73
2022/05/27 09:53:50;;;;;;;;;;;18.60;99.90;;;;;;5016928;28;20108;-73
2022/05/27 09:56:31;;;;;;;3.15;1.52;;;18.90;99.90;;;;;;5009904;28;19909;-72
2022/05/27 09:59:23;;;;;;;3.13;1.60;;;19.00;99.90;;;;;;5000128;28;20108;-73
2022/05/27 10:01:49;;;;;;;3.92;1.40;;;19.20;99.90;;;;;;5010166;28;20049;-72
2022/05/27 10:04:16;;;;;;;2.42;1.30;;;19.40;99.90;;;;;;5007538;28;20021;-73
2022/05/27 10:06:43;;;;;;;4.55;1.40;;;19.50;99.90;;;;;;5015134;28;20043;-73
2022/05/27 10:09:27;;;;;;;5.47;1.83;;;19.60;99.90;;;;;;5006194;28;20045;-73
2022/05/27 10:11:55;;;;;;;2.95;1.60;;;19.80;99.90;;;;;;5020711;28;20048;-73
2022/05/27 10:14:28;;;;;;;3.08;1.67;;;20.00;99.90;;;;;;5004099;28;20030;-73
2022/05/27 10:17:31;;;;;;;3.47;1.77;;;20.00;99.90;;;;;;5009561;28;20096;-74
2022/05/27 10:20:19;;;;;;;5.87;2.10;;;19.90;99.90;;;;;;5002719;28;20630;-73
2022/05/27 10:23:03;;;;;;;2.03;1.58;;;19.90;99.90;;;;;;5007007;28;20284;-74
2022/05/27 10:25:35;;;;;;;7.72;1.80;;;19.90;99.90;;;;;;5015369;28;20136;-73
2022/05/27 10:28:02;;;;;;;4.22;1.70;;;20.00;99.90;;;;;;5011219;28;20129;-74
2022/05/27 10:30:50;;;;;;;5.45;1.95;;;20.10;99.90;;;;;;5006054;28;20089;-73
2022/05/27 10:33:22;;;;;;;7.28;2.22;;;20.30;99.90;;;;;;5012968;28;20025;-74
2022/05/27 10:35:50;;;;;;;4.00;2.00;;;20.30;99.90;;;;;;5023410;28;20041;-73
2022/05/27 10:38:28;;;;;;;5.15;2.08;;;20.20;99.90;;;;;;4999761;28;20509;-74
2022/05/27 10:40:59;;;;;;;7.25;1.88;;;20.40;99.90;;;;;;5008039;28;20033;-74
2022/05/27 10:43:55;;;;;;;4.93;1.77;;;20.40;99.90;;;;;;5014841;28;20034;-73
2022/05/27 10:46:30;;;;;;;3.92;1.80;;;20.60;99.90;;;;;;4998114;28;20072;-74
2022/05/27 10:49:15;;;;;;;3.22;1.83;;;20.80;99.90;;;;;;5008095;28;20496;-74
2022/05/27 10:52:10;;;;;;;4.30;1.73;;;20.90;99.70;;;;;;5012015;28;20404;-73
2022/05/27 10:54:54;;;;;;;5.40;2.40;;;21.00;99.40;;;;;;5016032;28;20030;-73
2022/05/27 11:03:35;;;;;;;5.13;1.95;;;21.30;94.70;;;;;;4994883;28;20049;-74
2022/05/27 11:06:10;;;;;;;6.05;1.80;;;21.60;94.60;;;;;;5002709;28;20036;-73
2022/05/27 11:08:56;;;;;;;4.15;2.10;;;21.70;93.50;;;;;;5001207;28;20045;-73
2022/05/27 11:11:21;;;;;;;3.00;1.95;;;21.40;92.30;;;;;;4999534;28;20120;-73
2022/05/27 11:17:12;;;;;;;5.50;2.10;;;20.60;93.50;;;;;;4983334;28;20079;-72
2022/05/27 11:20:04;;;;;;;7.38;2.60;;;20.00;95.50;;;;;;4986780;28;20033;-73
2022/05/27 11:23:04;;;;;;;5.88;2.78;;;19.60;98.50;;;;;;4987899;28;20030;-73
2022/05/27 11:26:06;;;;;;;6.93;3.20;;;19.30;99.90;;;;;;4992803;28;20033;-74
2022/05/27 11:28:59;;;;;;;6.07;3.30;;;19.30;99.90;;;;;;4626611;28;10000030;-75
2022/05/27 11:31:36;;;;;;;2.13;1.77;;;19.40;99.90;;;;;;4992813;28;20034;-74
2022/05/27 11:34:24;;;;;;;8.65;2.95;;;19.60;99.90;;;;;;4995336;28;20065;-75
2022/05/27 11:36:55;;;;;;;3.60;1.95;;;19.90;98.90;;;;;;4994729;28;20337;-74
2022/05/27 11:39:55;;;;;;;5.53;2.28;;;20.20;98.90;;;;;;4982852;28;20173;-74
2022/05/27 11:42:55;;;;;;;8.80;2.08;;;20.20;98.10;;;;;;5004089;28;20148;-75
2022/05/27 11:45:30;;;;;;;4.93;2.20;;;20.40;97.20;;;;;;4925241;28;20035;-74
2022/05/27 11:48:30;;;;;;;5.47;2.40;;;20.60;99.90;;;;;;4989289;28;20116;-75
2022/05/27 11:51:07;;;;;;;5.38;2.10;;;20.80;99.90;;;;;;4986132;28;20037;-73
2022/05/27 11:53:58;;;;;;;4.80;2.17;;;20.90;99.90;;;;;;5000302;28;20026;-74
2022/05/27 11:57:01;;;;;;;8.05;2.30;;;21.20;99.90;;;;;;4985060;28;20030;-75
2022/05/27 11:59:37;;;;;;;7.70;2.50;;;21.20;97.80;;;;;;4906339;29;20067;-74
2022/05/27 12:02:33;;;;;;;6.10;2.38;;;21.30;98.30;;;;;;4992191;28;20037;-74
2022/05/27 12:05:12;;;;;;;8.77;2.30;;;21.40;97.40;;;;;;4985455;28;20030;-75
2022/05/27 12:07:41;;;;;;;6.63;2.15;;;21.40;96.50;;;;;;4984669;28;20042;-77
2022/05/27 12:10:15;;;;;;;5.45;2.00;;;21.20;93.80;;;;;;4986487;28;20037;-76
2022/05/27 12:12:59;;;;;;;9.13;2.67;;;21.30;95.90;;;;;;4994410;28;20151;-75
2022/05/27 12:15:36;;;;;;;4.22;1.98;;;21.60;94.80;;;;;;5017645;28;20041;-75
2022/05/27 12:18:07;;;;;;;6.72;2.13;;;21.80;95.60;;;;;;4991653;28;20572;-75
2022/05/27 12:20:35;;;;;;;10.05;1.95;;;;;;;;;;5004328;28;20046;-75
2022/05/27 12:23:06;;;;;;;3.95;1.50;;;21.70;81.90;;;;;;5011749;28;20033;-75
2022/05/27 12:25:38;;;;;;;5.53;1.85;;;21.60;81.90;;;;;;4998881;28;20037;-74
2022/05/27 12:28:05;;;;;;;6.13;1.80;;;21.70;81.80;;;;;;4986801;28;20026;-75
2022/05/27 12:30:35;;;;;;;3.25;1.42;;;21.50;83.00;;;;;;5005414;28;20061;-76
2022/05/27 12:33:02;;;;;;;7.53;1.80;;;21.60;82.80;;;;;;5013939;28;20029;-74
2022/05/27 12:35:33;;;;;;;6.55;1.88;;;21.50;85.10;;;;;;5013222;28;20057;-74
2022/05/27 12:38:12;;;;;;;7.93;1.88;;;21.30;85.10;;;;;;4990012;28;20038;-73
2022/05/27 12:40:53;;;;;;;4.30;1.80;;;21.00;82.10;;;;;;4987308;28;20040;-73
2022/05/27 12:43:26;;;;;;;7.25;2.10;;;20.70;85.90;;;;;;5007835;28;20026;-73
2022/05/27 12:45:59;;;;;;;6.68;2.40;;;20.90;83.60;;;;;;4995853;28;20030;-76
2022/05/27 12:48:40;;;;;;;8.85;2.10;;;21.00;83.30;;;;;;4998940;28;20422;-73
2022/05/27 12:51:15;;;;;;;8.85;2.22;;;21.00;83.90;;;;;;4995325;28;20034;-73
2022/05/27 12:53:52;;;;;;;12.30;2.03;;;21.00;96.10;;;;;;4994785;28;20017;-73
2022/05/27 13:02:22;;;;;;;7.82;2.05;;;21.30;93.60;;;;;;5007423;28;20622;-76
2022/05/27 13:04:59;;;;;;;5.82;1.63;;;21.60;93.60;;;;;;5006828;28;20080;-74
2022/05/27 13:07:27;;;;;;;12.63;2.13;;;21.70;94.60;;;;;;5004095;28;20526;-74
2022/05/27 13:09:54;;;;;;;8.13;2.17;;;22.10;94.50;;;;;;4998173;28;20138;-74
2022/05/27 13:12:47;;;;;;;5.65;2.00;;;22.30;94.90;;;;;;4986525;28;20461;-75
2022/05/27 13:15:30;;;;;;;9.02;2.00;;;22.40;92.30;;;;;;4975651;28;20049;-74
2022/05/27 13:17:59;;;;;;;7.28;1.60;;;22.40;91.50;;;;;;4985999;28;20039;-74
2022/05/27 13:20:51;;;;;;;8.85;2.05;;;22.30;91.30;;;;;;4986273;28;20043;-74
2022/05/27 13:23:21;;;;;;;8.15;1.67;;;22.30;90.80;;;;;;4985731;28;20025;-74
2022/05/27 13:26:21;;;;;;;7.57;2.00;;;22.10;86.80;;;;;;4988925;28;20014;-74
2022/05/27 13:28:59;;;;;;;6.60;1.77;;;21.90;88.10;;;;;;4981842;28;20037;-74
2022/05/27 13:31:34;;;;;;;6.43;1.98;;;21.90;89.40;;;;;;4983319;28;20054;-75
2022/05/27 13:34:11;;;;;;;10.45;2.03;;;22.00;90.00;;;;;;4990971;28;20073;-74
2022/05/27 13:36:48;;;;;;;5.07;1.95;;;22.20;90.00;;;;;;4985920;28;20175;-74
2022/05/27 13:39:22;;;;;;;11.20;1.92;;;22.30;88.90;;;;;;4984794;28;20083;-74
2022/05/27 13:41:50;;;;;;;10.15;1.95;;;22.40;89.30;;;;;;5000529;28;20323;-74
2022/05/27 13:44:21;;;;;;;12.82;2.15;;;22.30;86.70;;;;;;5002525;28;20415;-73
2022/05/27 13:46:57;;;;;;;9.23;1.73;;;22.30;86.00;;;;;;4987842;28;20494;-74
2022/05/27 13:49:30;;;;;;;6.35;1.85;;;22.10;86.20;;;;;;4994061;28;20042;-74
2022/05/27 13:51:56;;;;;;;5.05;1.58;;;22.20;86.90;;;;;;4983808;28;20031;-74